sensor_id;sensor_type;location;lat;lon;timestamp;temperature;humidity
17726;DHT22;8983;53.156;17.960;2023-07-08T00:01:15;20.50;92.40
17726;DHT22;8983;53.156;17.960;2023-07-08T00:03:43;20.40;92.60
17726;DHT22;8983;53.156;17.960;2023-07-08T00:06:16;20.40;92.70
17726;DHT22;8983;53.156;17.960;2023-07-08T00:08:47;20.40;92.90
17726;DHT22;8983;53.156;17.960;2023-07-08T00:11:17;20.40;93.00
17726;DHT22;8983;53.156;17.960;2023-07-08T00:13:45;20.30;93.20
17726;DHT22;8983;53.156;17.960;2023-07-08T00:16:15;20.20;93.30
17726;DHT22;8983;53.156;17.960;2023-07-08T00:18:44;20.20;93.50
17726;DHT22;8983;53.156;17.960;2023-07-08T00:21:14;20.20;93.60
17726;DHT22;8983;53.156;17.960;2023-07-08T00:23:44;20.20;93.80
17726;DHT22;8983;53.156;17.960;2023-07-08T00:26:17;20.10;93.80
17726;DHT22;8983;53.156;17.960;2023-07-08T00:28:46;20.10;93.90
17726;DHT22;8983;53.156;17.960;2023-07-08T00:31:14;20.10;94.00
17726;DHT22;8983;53.156;17.960;2023-07-08T00:33:42;20.10;94.10
17726;DHT22;8983;53.156;17.960;2023-07-08T00:36:12;20.10;94.10
17726;DHT22;8983;53.156;17.960;2023-07-08T00:38:41;20.10;94.10
17726;DHT22;8983;53.156;17.960;2023-07-08T00:41:16;20.00;94.10
17726;DHT22;8983;53.156;17.960;2023-07-08T00:43:49;20.00;94.20
17726;DHT22;8983;53.156;17.960;2023-07-08T00:46:37;20.00;94.20
17726;DHT22;8983;53.156;17.960;2023-07-08T00:49:23;20.00;94.30
17726;DHT22;8983;53.156;17.960;2023-07-08T00:51:53;20.00;94.40
17726;DHT22;8983;53.156;17.960;2023-07-08T00:54:21;19.90;94.40
17726;DHT22;8983;53.156;17.960;2023-07-08T00:56:52;19.80;94.50
17726;DHT22;8983;53.156;17.960;2023-07-08T00:59:28;20.00;94.60
17726;DHT22;8983;53.156;17.960;2023-07-08T01:01:59;19.80;94.70
17726;DHT22;8983;53.156;17.960;2023-07-08T01:04:33;19.80;94.80
17726;DHT22;8983;53.156;17.960;2023-07-08T01:07:04;19.70;94.90
17726;DHT22;8983;53.156;17.960;2023-07-08T01:09:38;19.70;95.10
17726;DHT22;8983;53.156;17.960;2023-07-08T01:12:13;19.60;95.10
17726;DHT22;8983;53.156;17.960;2023-07-08T01:14:43;19.60;95.30
17726;DHT22;8983;53.156;17.960;2023-07-08T01:17:11;19.60;95.50
17726;DHT22;8983;53.156;17.960;2023-07-08T01:19:42;19.50;95.60
17726;DHT22;8983;53.156;17.960;2023-07-08T01:22:12;19.50;95.80
17726;DHT22;8983;53.156;17.960;2023-07-08T01:24:42;19.40;96.00
17726;DHT22;8983;53.156;17.960;2023-07-08T01:27:12;19.40;96.10
17726;DHT22;8983;53.156;17.960;2023-07-08T01:29:41;19.40;96.10
17726;DHT22;8983;53.156;17.960;2023-07-08T01:32:12;19.30;96.20
17726;DHT22;8983;53.156;17.960;2023-07-08T01:34:46;19.30;96.30
17726;DHT22;8983;53.156;17.960;2023-07-08T01:37:34;19.30;96.30
17726;DHT22;8983;53.156;17.960;2023-07-08T01:40:26;19.30;96.40
17726;DHT22;8983;53.156;17.960;2023-07-08T01:42:55;19.30;96.40
17726;DHT22;8983;53.156;17.960;2023-07-08T01:45:26;19.20;96.40
17726;DHT22;8983;53.156;17.960;2023-07-08T01:47:59;19.20;96.50
17726;DHT22;8983;53.156;17.960;2023-07-08T01:50:29;19.20;96.60
17726;DHT22;8983;53.156;17.960;2023-07-08T01:53:04;19.10;96.70
17726;DHT22;8983;53.156;17.960;2023-07-08T01:55:35;19.10;97.00
17726;DHT22;8983;53.156;17.960;2023-07-08T01:58:03;19.10;97.10
17726;DHT22;8983;53.156;17.960;2023-07-08T02:00:32;19.10;97.10
17726;DHT22;8983;53.156;17.960;2023-07-08T02:03:00;19.10;97.30
17726;DHT22;8983;53.156;17.960;2023-07-08T02:05:28;19.00;97.40
17726;DHT22;8983;53.156;17.960;2023-07-08T02:07:56;19.00;97.40
17726;DHT22;8983;53.156;17.960;2023-07-08T02:10:25;19.00;97.50
17726;DHT22;8983;53.156;17.960;2023-07-08T02:12:54;18.90;97.60
17726;DHT22;8983;53.156;17.960;2023-07-08T02:15:22;18.90;97.60
17726;DHT22;8983;53.156;17.960;2023-07-08T02:17:50;18.90;97.60
17726;DHT22;8983;53.156;17.960;2023-07-08T02:20:18;18.90;97.60
17726;DHT22;8983;53.156;17.960;2023-07-08T02:22:46;18.90;97.60
17726;DHT22;8983;53.156;17.960;2023-07-08T02:25:14;18.90;97.70
17726;DHT22;8983;53.156;17.960;2023-07-08T02:30:13;18.80;97.40
17726;DHT22;8983;53.156;17.960;2023-07-08T02:32:41;18.70;97.70
17726;DHT22;8983;53.156;17.960;2023-07-08T02:35:15;18.70;97.80
17726;DHT22;8983;53.156;17.960;2023-07-08T02:37:44;18.70;97.90
17726;DHT22;8983;53.156;17.960;2023-07-08T02:40:12;18.60;98.00
17726;DHT22;8983;53.156;17.960;2023-07-08T02:42:41;18.70;98.20
17726;DHT22;8983;53.156;17.960;2023-07-08T02:45:11;18.80;98.30
17726;DHT22;8983;53.156;17.960;2023-07-08T02:47:40;18.60;98.40
17726;DHT22;8983;53.156;17.960;2023-07-08T02:50:08;18.60;98.40
17726;DHT22;8983;53.156;17.960;2023-07-08T02:52:37;18.50;98.50
17726;DHT22;8983;53.156;17.960;2023-07-08T02:55:06;18.50;98.60
17726;DHT22;8983;53.156;17.960;2023-07-08T02:57:34;18.50;98.80
17726;DHT22;8983;53.156;17.960;2023-07-08T03:00:03;18.50;98.80
17726;DHT22;8983;53.156;17.960;2023-07-08T03:02:34;18.50;98.80
17726;DHT22;8983;53.156;17.960;2023-07-08T03:05:03;18.40;98.90
17726;DHT22;8983;53.156;17.960;2023-07-08T03:07:32;18.40;98.90
17726;DHT22;8983;53.156;17.960;2023-07-08T03:10:00;18.40;99.00
17726;DHT22;8983;53.156;17.960;2023-07-08T03:12:28;18.40;99.10
17726;DHT22;8983;53.156;17.960;2023-07-08T03:14:56;18.40;99.20
17726;DHT22;8983;53.156;17.960;2023-07-08T03:17:24;18.30;99.20
17726;DHT22;8983;53.156;17.960;2023-07-08T03:19:54;18.40;99.30
17726;DHT22;8983;53.156;17.960;2023-07-08T03:22:22;18.40;99.40
17726;DHT22;8983;53.156;17.960;2023-07-08T03:24:50;18.40;99.40
17726;DHT22;8983;53.156;17.960;2023-07-08T03:27:18;18.40;99.50
17726;DHT22;8983;53.156;17.960;2023-07-08T03:29:47;18.40;99.60
17726;DHT22;8983;53.156;17.960;2023-07-08T03:32:15;18.30;99.70
17726;DHT22;8983;53.156;17.960;2023-07-08T03:34:44;18.40;99.80
17726;DHT22;8983;53.156;17.960;2023-07-08T03:37:13;18.50;99.90
17726;DHT22;8983;53.156;17.960;2023-07-08T03:39:42;18.40;99.90
17726;DHT22;8983;53.156;17.960;2023-07-08T03:42:10;18.40;99.90
17726;DHT22;8983;53.156;17.960;2023-07-08T03:44:38;18.40;99.90
17726;DHT22;8983;53.156;17.960;2023-07-08T03:47:07;18.30;99.90
17726;DHT22;8983;53.156;17.960;2023-07-08T03:49:36;18.50;99.90
17726;DHT22;8983;53.156;17.960;2023-07-08T03:52:05;18.40;99.90
17726;DHT22;8983;53.156;17.960;2023-07-08T03:54:34;18.40;99.90
17726;DHT22;8983;53.156;17.960;2023-07-08T03:57:03;18.50;99.90
17726;DHT22;8983;53.156;17.960;2023-07-08T03:59:31;18.40;99.90
17726;DHT22;8983;53.156;17.960;2023-07-08T04:01:59;18.40;99.90
17726;DHT22;8983;53.156;17.960;2023-07-08T04:04:28;18.40;99.90
17726;DHT22;8983;53.156;17.960;2023-07-08T04:06:56;18.50;99.90
17726;DHT22;8983;53.156;17.960;2023-07-08T04:09:24;18.50;99.90
17726;DHT22;8983;53.156;17.960;2023-07-08T04:11:53;18.60;99.90
17726;DHT22;8983;53.156;17.960;2023-07-08T04:14:22;18.60;99.90
17726;DHT22;8983;53.156;17.960;2023-07-08T04:16:52;18.60;99.90
17726;DHT22;8983;53.156;17.960;2023-07-08T04:19:25;18.60;99.90
17726;DHT22;8983;53.156;17.960;2023-07-08T04:21:54;18.70;99.90
17726;DHT22;8983;53.156;17.960;2023-07-08T04:24:22;18.70;99.90
17726;DHT22;8983;53.156;17.960;2023-07-08T04:26:50;18.70;99.90
17726;DHT22;8983;53.156;17.960;2023-07-08T04:29:22;18.70;99.90
17726;DHT22;8983;53.156;17.960;2023-07-08T04:31:50;18.90;99.90
17726;DHT22;8983;53.156;17.960;2023-07-08T04:34:18;18.80;99.90
17726;DHT22;8983;53.156;17.960;2023-07-08T04:36:47;18.70;99.90
17726;DHT22;8983;53.156;17.960;2023-07-08T04:39:15;18.80;99.90
17726;DHT22;8983;53.156;17.960;2023-07-08T04:41:44;18.80;99.90
17726;DHT22;8983;53.156;17.960;2023-07-08T04:44:13;18.80;99.90
17726;DHT22;8983;53.156;17.960;2023-07-08T04:46:45;18.80;99.90
17726;DHT22;8983;53.156;17.960;2023-07-08T04:49:14;18.90;99.90
17726;DHT22;8983;53.156;17.960;2023-07-08T04:51:43;19.00;99.90
17726;DHT22;8983;53.156;17.960;2023-07-08T04:54:11;19.00;99.90
17726;DHT22;8983;53.156;17.960;2023-07-08T04:56:41;19.00;99.90
17726;DHT22;8983;53.156;17.960;2023-07-08T04:59:11;19.10;99.90
17726;DHT22;8983;53.156;17.960;2023-07-08T05:01:41;19.20;99.90
17726;DHT22;8983;53.156;17.960;2023-07-08T05:04:14;19.20;99.90
17726;DHT22;8983;53.156;17.960;2023-07-08T05:06:42;19.20;99.90
17726;DHT22;8983;53.156;17.960;2023-07-08T05:09:11;19.30;99.90
17726;DHT22;8983;53.156;17.960;2023-07-08T05:11:42;19.30;99.90
17726;DHT22;8983;53.156;17.960;2023-07-08T05:14:11;19.40;99.90
17726;DHT22;8983;53.156;17.960;2023-07-08T05:16:41;19.30;99.90
17726;DHT22;8983;53.156;17.960;2023-07-08T05:19:09;19.50;99.90
17726;DHT22;8983;53.156;17.960;2023-07-08T05:21:38;19.60;99.90
17726;DHT22;8983;53.156;17.960;2023-07-08T05:24:07;19.50;99.90
17726;DHT22;8983;53.156;17.960;2023-07-08T05:26:35;19.60;99.90
17726;DHT22;8983;53.156;17.960;2023-07-08T05:29:03;19.60;99.90
17726;DHT22;8983;53.156;17.960;2023-07-08T05:31:33;19.70;99.90
17726;DHT22;8983;53.156;17.960;2023-07-08T05:34:06;19.70;99.90
17726;DHT22;8983;53.156;17.960;2023-07-08T05:36:34;19.80;99.90
17726;DHT22;8983;53.156;17.960;2023-07-08T05:39:03;19.80;99.90
17726;DHT22;8983;53.156;17.960;2023-07-08T05:41:31;19.90;99.90
17726;DHT22;8983;53.156;17.960;2023-07-08T05:43:59;19.90;99.90
17726;DHT22;8983;53.156;17.960;2023-07-08T05:46:28;19.90;99.90
17726;DHT22;8983;53.156;17.960;2023-07-08T05:48:56;20.00;99.90
17726;DHT22;8983;53.156;17.960;2023-07-08T05:51:29;20.00;99.90
17726;DHT22;8983;53.156;17.960;2023-07-08T05:53:57;20.10;99.90
17726;DHT22;8983;53.156;17.960;2023-07-08T05:56:30;20.10;99.90
17726;DHT22;8983;53.156;17.960;2023-07-08T05:58:58;20.20;99.90
17726;DHT22;8983;53.156;17.960;2023-07-08T06:01:27;20.20;99.90
17726;DHT22;8983;53.156;17.960;2023-07-08T06:03:55;20.30;99.90
17726;DHT22;8983;53.156;17.960;2023-07-08T06:06:25;20.40;99.90
17726;DHT22;8983;53.156;17.960;2023-07-08T06:08:54;20.30;99.90
17726;DHT22;8983;53.156;17.960;2023-07-08T06:11:23;20.40;99.90
17726;DHT22;8983;53.156;17.960;2023-07-08T06:13:51;20.50;99.90
17726;DHT22;8983;53.156;17.960;2023-07-08T06:16:20;20.60;99.90
17726;DHT22;8983;53.156;17.960;2023-07-08T06:19:05;20.60;99.90
17726;DHT22;8983;53.156;17.960;2023-07-08T06:21:33;20.70;99.90
17726;DHT22;8983;53.156;17.960;2023-07-08T06:24:04;20.80;99.90
17726;DHT22;8983;53.156;17.960;2023-07-08T06:26:32;20.90;99.90
17726;DHT22;8983;53.156;17.960;2023-07-08T06:29:00;21.10;99.90
17726;DHT22;8983;53.156;17.960;2023-07-08T06:31:29;21.10;99.90
17726;DHT22;8983;53.156;17.960;2023-07-08T06:33:58;21.10;99.90
17726;DHT22;8983;53.156;17.960;2023-07-08T06:36:26;21.10;99.90
17726;DHT22;8983;53.156;17.960;2023-07-08T06:38:54;21.20;99.90
17726;DHT22;8983;53.156;17.960;2023-07-08T06:41:24;21.30;99.90
17726;DHT22;8983;53.156;17.960;2023-07-08T06:43:52;21.40;99.90
17726;DHT22;8983;53.156;17.960;2023-07-08T06:46:22;21.40;99.90
17726;DHT22;8983;53.156;17.960;2023-07-08T06:48:50;21.50;99.90
17726;DHT22;8983;53.156;17.960;2023-07-08T06:51:20;21.60;99.90
17726;DHT22;8983;53.156;17.960;2023-07-08T06:53:48;21.60;99.60
17726;DHT22;8983;53.156;17.960;2023-07-08T06:56:17;21.70;99.20
17726;DHT22;8983;53.156;17.960;2023-07-08T06:58:46;21.80;98.80
17726;DHT22;8983;53.156;17.960;2023-07-08T07:01:14;21.80;98.40
17726;DHT22;8983;53.156;17.960;2023-07-08T07:03:43;21.90;98.10
17726;DHT22;8983;53.156;17.960;2023-07-08T07:06:12;21.90;97.70
17726;DHT22;8983;53.156;17.960;2023-07-08T07:08:40;22.00;97.30
17726;DHT22;8983;53.156;17.960;2023-07-08T07:11:08;22.00;96.80
17726;DHT22;8983;53.156;17.960;2023-07-08T07:13:36;22.10;96.30
17726;DHT22;8983;53.156;17.960;2023-07-08T07:16:06;22.10;95.80
17726;DHT22;8983;53.156;17.960;2023-07-08T07:18:35;22.20;95.40
17726;DHT22;8983;53.156;17.960;2023-07-08T07:21:04;22.20;95.20
17726;DHT22;8983;53.156;17.960;2023-07-08T07:23:33;22.30;95.00
17726;DHT22;8983;53.156;17.960;2023-07-08T07:26:01;22.30;95.00
17726;DHT22;8983;53.156;17.960;2023-07-08T07:28:31;22.30;95.10
17726;DHT22;8983;53.156;17.960;2023-07-08T07:31:00;22.40;95.30
17726;DHT22;8983;53.156;17.960;2023-07-08T07:33:30;22.40;95.20
17726;DHT22;8983;53.156;17.960;2023-07-08T07:35:58;22.30;94.80
17726;DHT22;8983;53.156;17.960;2023-07-08T07:38:27;22.50;94.60
17726;DHT22;8983;53.156;17.960;2023-07-08T07:40:57;22.60;94.50
17726;DHT22;8983;53.156;17.960;2023-07-08T07:43:27;22.60;94.50
17726;DHT22;8983;53.156;17.960;2023-07-08T07:45:55;22.70;94.40
17726;DHT22;8983;53.156;17.960;2023-07-08T07:48:24;22.70;94.00
17726;DHT22;8983;53.156;17.960;2023-07-08T07:50:54;22.80;93.60
17726;DHT22;8983;53.156;17.960;2023-07-08T07:53:22;22.80;93.30
17726;DHT22;8983;53.156;17.960;2023-07-08T07:55:56;22.80;92.80
17726;DHT22;8983;53.156;17.960;2023-07-08T07:58:25;22.90;92.50
17726;DHT22;8983;53.156;17.960;2023-07-08T08:00:53;22.90;92.30
17726;DHT22;8983;53.156;17.960;2023-07-08T08:03:22;23.00;92.10
17726;DHT22;8983;53.156;17.960;2023-07-08T08:05:50;23.00;91.80
17726;DHT22;8983;53.156;17.960;2023-07-08T08:08:23;23.10;91.40
17726;DHT22;8983;53.156;17.960;2023-07-08T08:11:03;23.10;91.00
17726;DHT22;8983;53.156;17.960;2023-07-08T08:13:35;23.10;90.70
17726;DHT22;8983;53.156;17.960;2023-07-08T08:16:10;23.20;90.40
17726;DHT22;8983;53.156;17.960;2023-07-08T08:18:53;23.30;90.20
17726;DHT22;8983;53.156;17.960;2023-07-08T08:21:31;23.30;90.00
17726;DHT22;8983;53.156;17.960;2023-07-08T08:24:01;23.30;89.20
17726;DHT22;8983;53.156;17.960;2023-07-08T08:26:30;23.30;88.40
17726;DHT22;8983;53.156;17.960;2023-07-08T08:28:58;23.40;88.40
17726;DHT22;8983;53.156;17.960;2023-07-08T08:31:27;23.50;87.70
17726;DHT22;8983;53.156;17.960;2023-07-08T08:33:55;23.60;87.00
17726;DHT22;8983;53.156;17.960;2023-07-08T08:36:23;23.60;86.20
17726;DHT22;8983;53.156;17.960;2023-07-08T08:38:55;23.60;84.50
17726;DHT22;8983;53.156;17.960;2023-07-08T08:41:30;23.70;83.10
17726;DHT22;8983;53.156;17.960;2023-07-08T08:44:00;23.70;82.40
17726;DHT22;8983;53.156;17.960;2023-07-08T08:46:34;23.70;81.80
17726;DHT22;8983;53.156;17.960;2023-07-08T08:49:10;23.70;81.20
17726;DHT22;8983;53.156;17.960;2023-07-08T08:51:41;23.80;80.60
17726;DHT22;8983;53.156;17.960;2023-07-08T08:54:09;23.80;80.00
17726;DHT22;8983;53.156;17.960;2023-07-08T08:56:46;23.90;79.40
17726;DHT22;8983;53.156;17.960;2023-07-08T08:59:23;23.90;79.30
17726;DHT22;8983;53.156;17.960;2023-07-08T09:01:55;24.00;79.50
17726;DHT22;8983;53.156;17.960;2023-07-08T09:04:28;24.00;79.40
17726;DHT22;8983;53.156;17.960;2023-07-08T09:07:02;23.90;79.30
17726;DHT22;8983;53.156;17.960;2023-07-08T09:09:37;24.00;79.50
17726;DHT22;8983;53.156;17.960;2023-07-08T09:12:11;24.00;80.00
17726;DHT22;8983;53.156;17.960;2023-07-08T09:14:45;24.10;79.80
17726;DHT22;8983;53.156;17.960;2023-07-08T09:17:17;24.10;78.80
17726;DHT22;8983;53.156;17.960;2023-07-08T09:19:52;24.20;78.50
17726;DHT22;8983;53.156;17.960;2023-07-08T09:22:34;24.20;77.70
17726;DHT22;8983;53.156;17.960;2023-07-08T09:25:10;24.20;77.10
17726;DHT22;8983;53.156;17.960;2023-07-08T09:27:42;24.30;76.70
17726;DHT22;8983;53.156;17.960;2023-07-08T09:30:14;24.30;76.10
17726;DHT22;8983;53.156;17.960;2023-07-08T09:32:42;24.40;76.10
17726;DHT22;8983;53.156;17.960;2023-07-08T09:35:17;24.40;76.10
17726;DHT22;8983;53.156;17.960;2023-07-08T09:37:46;24.50;75.20
17726;DHT22;8983;53.156;17.960;2023-07-08T09:40:18;24.50;74.80
17726;DHT22;8983;53.156;17.960;2023-07-08T09:42:51;24.50;74.40
17726;DHT22;8983;53.156;17.960;2023-07-08T09:45:22;24.60;74.10
17726;DHT22;8983;53.156;17.960;2023-07-08T09:47:53;24.60;74.00
17726;DHT22;8983;53.156;17.960;2023-07-08T09:50:23;24.70;74.10
17726;DHT22;8983;53.156;17.960;2023-07-08T09:52:54;24.70;73.50
17726;DHT22;8983;53.156;17.960;2023-07-08T09:55:24;24.70;72.70
17726;DHT22;8983;53.156;17.960;2023-07-08T09:57:56;24.80;72.20
17726;DHT22;8983;53.156;17.960;2023-07-08T10:00:32;24.80;71.70
17726;DHT22;8983;53.156;17.960;2023-07-08T10:03:08;24.80;71.80
17726;DHT22;8983;53.156;17.960;2023-07-08T10:05:39;24.90;71.70
17726;DHT22;8983;53.156;17.960;2023-07-08T10:08:14;24.90;71.70
17726;DHT22;8983;53.156;17.960;2023-07-08T10:10:43;25.00;71.20
17726;DHT22;8983;53.156;17.960;2023-07-08T10:13:19;25.10;71.30
17726;DHT22;8983;53.156;17.960;2023-07-08T10:15:54;25.10;71.00
17726;DHT22;8983;53.156;17.960;2023-07-08T10:18:27;25.10;70.60
17726;DHT22;8983;53.156;17.960;2023-07-08T10:21:08;25.20;70.60
17726;DHT22;8983;53.156;17.960;2023-07-08T10:23:47;25.20;69.70
17726;DHT22;8983;53.156;17.960;2023-07-08T10:26:25;25.30;70.40
17726;DHT22;8983;53.156;17.960;2023-07-08T10:31:50;25.40;70.60
17726;DHT22;8983;53.156;17.960;2023-07-08T10:34:32;25.50;70.50
17726;DHT22;8983;53.156;17.960;2023-07-08T10:37:10;25.60;70.00
17726;DHT22;8983;53.156;17.960;2023-07-08T10:39:55;25.60;69.30
17726;DHT22;8983;53.156;17.960;2023-07-08T10:42:33;25.60;68.70
17726;DHT22;8983;53.156;17.960;2023-07-08T10:45:12;25.70;68.20
17726;DHT22;8983;53.156;17.960;2023-07-08T10:47:56;25.70;69.00
17726;DHT22;8983;53.156;17.960;2023-07-08T10:53:35;25.70;67.20
17726;DHT22;8983;53.156;17.960;2023-07-08T10:56:12;25.80;66.60
17726;DHT22;8983;53.156;17.960;2023-07-08T10:59:05;25.80;65.90
17726;DHT22;8983;53.156;17.960;2023-07-08T11:01:43;25.90;65.20
17726;DHT22;8983;53.156;17.960;2023-07-08T11:04:26;26.00;64.90
17726;DHT22;8983;53.156;17.960;2023-07-08T11:07:03;26.00;65.10
17726;DHT22;8983;53.156;17.960;2023-07-08T11:09:37;26.20;64.90
17726;DHT22;8983;53.156;17.960;2023-07-08T11:12:15;26.50;64.10
17726;DHT22;8983;53.156;17.960;2023-07-08T11:14:55;26.90;63.20
17726;DHT22;8983;53.156;17.960;2023-07-08T11:17:29;27.50;62.00
17726;DHT22;8983;53.156;17.960;2023-07-08T11:20:02;28.10;61.50
17726;DHT22;8983;53.156;17.960;2023-07-08T11:22:45;28.60;59.60
17726;DHT22;8983;53.156;17.960;2023-07-08T11:25:18;29.20;59.60
17726;DHT22;8983;53.156;17.960;2023-07-08T11:27:49;29.70;59.00
17726;DHT22;8983;53.156;17.960;2023-07-08T11:30:22;30.10;57.80
17726;DHT22;8983;53.156;17.960;2023-07-08T11:32:58;30.30;56.20
17726;DHT22;8983;53.156;17.960;2023-07-08T11:35:35;30.30;55.40
17726;DHT22;8983;53.156;17.960;2023-07-08T11:38:04;30.40;54.80
17726;DHT22;8983;53.156;17.960;2023-07-08T11:40:48;30.50;54.00
17726;DHT22;8983;53.156;17.960;2023-07-08T11:43:19;30.60;53.10
17726;DHT22;8983;53.156;17.960;2023-07-08T11:45:49;30.80;52.40
17726;DHT22;8983;53.156;17.960;2023-07-08T11:48:25;30.90;52.00
17726;DHT22;8983;53.156;17.960;2023-07-08T11:50:57;31.00;52.00
17726;DHT22;8983;53.156;17.960;2023-07-08T11:53:38;31.00;51.40
17726;DHT22;8983;53.156;17.960;2023-07-08T11:56:20;31.00;50.90
17726;DHT22;8983;53.156;17.960;2023-07-08T11:59:12;30.90;50.90
17726;DHT22;8983;53.156;17.960;2023-07-08T12:01:47;31.10;51.10
17726;DHT22;8983;53.156;17.960;2023-07-08T12:04:24;31.30;51.20
17726;DHT22;8983;53.156;17.960;2023-07-08T12:07:11;31.60;50.70
17726;DHT22;8983;53.156;17.960;2023-07-08T12:09:48;31.90;49.80
17726;DHT22;8983;53.156;17.960;2023-07-08T12:12:24;32.30;49.60
17726;DHT22;8983;53.156;17.960;2023-07-08T12:15:04;32.40;48.90
17726;DHT22;8983;53.156;17.960;2023-07-08T12:17:35;32.60;49.00
17726;DHT22;8983;53.156;17.960;2023-07-08T12:20:16;32.70;48.50
17726;DHT22;8983;53.156;17.960;2023-07-08T12:22:45;33.20;48.80
17726;DHT22;8983;53.156;17.960;2023-07-08T12:25:13;33.50;48.30
17726;DHT22;8983;53.156;17.960;2023-07-08T12:27:43;33.90;47.70
17726;DHT22;8983;53.156;17.960;2023-07-08T12:30:12;34.20;47.10
17726;DHT22;8983;53.156;17.960;2023-07-08T12:32:41;34.40;46.10
17726;DHT22;8983;53.156;17.960;2023-07-08T12:35:21;34.70;45.50
17726;DHT22;8983;53.156;17.960;2023-07-08T12:37:51;35.00;45.10
17726;DHT22;8983;53.156;17.960;2023-07-08T12:40:21;35.20;45.00
17726;DHT22;8983;53.156;17.960;2023-07-08T12:42:50;35.50;44.60
17726;DHT22;8983;53.156;17.960;2023-07-08T12:45:21;35.70;44.20
17726;DHT22;8983;53.156;17.960;2023-07-08T12:47:49;35.90;43.80
17726;DHT22;8983;53.156;17.960;2023-07-08T12:50:21;36.00;43.80
17726;DHT22;8983;53.156;17.960;2023-07-08T12:52:49;36.30;44.30
17726;DHT22;8983;53.156;17.960;2023-07-08T12:55:18;36.70;43.60
17726;DHT22;8983;53.156;17.960;2023-07-08T12:57:50;36.80;42.40
17726;DHT22;8983;53.156;17.960;2023-07-08T13:00:23;36.60;42.00
17726;DHT22;8983;53.156;17.960;2023-07-08T13:02:57;36.50;41.70
17726;DHT22;8983;53.156;17.960;2023-07-08T13:05:27;36.50;41.70
17726;DHT22;8983;53.156;17.960;2023-07-08T13:07:56;36.50;41.90
17726;DHT22;8983;53.156;17.960;2023-07-08T13:10:28;36.70;41.60
17726;DHT22;8983;53.156;17.960;2023-07-08T13:12:59;36.80;41.40
17726;DHT22;8983;53.156;17.960;2023-07-08T13:15:31;37.00;41.50
17726;DHT22;8983;53.156;17.960;2023-07-08T13:18:02;37.10;41.10
17726;DHT22;8983;53.156;17.960;2023-07-08T13:20:32;37.10;40.90
17726;DHT22;8983;53.156;17.960;2023-07-08T13:23:01;37.40;40.80
17726;DHT22;8983;53.156;17.960;2023-07-08T13:25:31;37.70;41.00
17726;DHT22;8983;53.156;17.960;2023-07-08T13:28:01;38.00;40.80
17726;DHT22;8983;53.156;17.960;2023-07-08T13:30:30;38.40;40.60
17726;DHT22;8983;53.156;17.960;2023-07-08T13:32:59;38.50;40.10
17726;DHT22;8983;53.156;17.960;2023-07-08T13:35:36;38.40;39.70
17726;DHT22;8983;53.156;17.960;2023-07-08T13:38:05;38.40;39.70
17726;DHT22;8983;53.156;17.960;2023-07-08T13:40:42;38.40;39.70
17726;DHT22;8983;53.156;17.960;2023-07-08T13:43:11;38.50;39.30
17726;DHT22;8983;53.156;17.960;2023-07-08T13:45:44;38.30;39.20
17726;DHT22;8983;53.156;17.960;2023-07-08T13:48:24;38.20;39.10
17726;DHT22;8983;53.156;17.960;2023-07-08T13:51:01;38.10;39.20
17726;DHT22;8983;53.156;17.960;2023-07-08T13:53:43;38.20;39.30
17726;DHT22;8983;53.156;17.960;2023-07-08T13:56:14;38.50;38.80
17726;DHT22;8983;53.156;17.960;2023-07-08T13:58:43;38.80;39.10
17726;DHT22;8983;53.156;17.960;2023-07-08T14:01:15;38.90;38.90
17726;DHT22;8983;53.156;17.960;2023-07-08T14:03:49;39.10;38.70
17726;DHT22;8983;53.156;17.960;2023-07-08T14:06:21;39.10;38.50
17726;DHT22;8983;53.156;17.960;2023-07-08T14:08:53;39.20;38.40
17726;DHT22;8983;53.156;17.960;2023-07-08T14:11:22;39.10;38.30
17726;DHT22;8983;53.156;17.960;2023-07-08T14:13:50;39.10;38.30
17726;DHT22;8983;53.156;17.960;2023-07-08T14:16:24;39.30;38.30
17726;DHT22;8983;53.156;17.960;2023-07-08T14:18:54;39.60;38.20
17726;DHT22;8983;53.156;17.960;2023-07-08T14:21:24;39.80;38.10
17726;DHT22;8983;53.156;17.960;2023-07-08T14:23:52;40.00;37.80
17726;DHT22;8983;53.156;17.960;2023-07-08T14:26:20;39.90;37.60
17726;DHT22;8983;53.156;17.960;2023-07-08T14:28:49;39.70;37.50
17726;DHT22;8983;53.156;17.960;2023-07-08T14:34:36;39.50;37.30
17726;DHT22;8983;53.156;17.960;2023-07-08T14:37:11;39.40;37.60
17726;DHT22;8983;53.156;17.960;2023-07-08T14:39:41;39.40;37.80
17726;DHT22;8983;53.156;17.960;2023-07-08T14:42:10;38.90;38.10
17726;DHT22;8983;53.156;17.960;2023-07-08T14:44:41;38.50;38.40
17726;DHT22;8983;53.156;17.960;2023-07-08T14:47:12;38.60;38.90
17726;DHT22;8983;53.156;17.960;2023-07-08T14:49:41;39.00;38.70
17726;DHT22;8983;53.156;17.960;2023-07-08T14:52:12;39.40;38.60
17726;DHT22;8983;53.156;17.960;2023-07-08T14:54:41;39.60;38.50
17726;DHT22;8983;53.156;17.960;2023-07-08T14:57:14;39.70;38.00
17726;DHT22;8983;53.156;17.960;2023-07-08T14:59:44;39.80;38.00
17726;DHT22;8983;53.156;17.960;2023-07-08T15:02:19;39.90;37.70
17726;DHT22;8983;53.156;17.960;2023-07-08T15:04:49;39.90;37.90
17726;DHT22;8983;53.156;17.960;2023-07-08T15:07:22;39.80;37.60
17726;DHT22;8983;53.156;17.960;2023-07-08T15:09:50;39.50;37.60
17726;DHT22;8983;53.156;17.960;2023-07-08T15:12:19;39.00;38.00
17726;DHT22;8983;53.156;17.960;2023-07-08T15:14:47;38.60;38.30
17726;DHT22;8983;53.156;17.960;2023-07-08T15:17:16;38.30;39.20
17726;DHT22;8983;53.156;17.960;2023-07-08T15:19:44;38.40;38.90
17726;DHT22;8983;53.156;17.960;2023-07-08T15:22:13;38.70;38.50
17726;DHT22;8983;53.156;17.960;2023-07-08T15:24:43;38.90;38.10
17726;DHT22;8983;53.156;17.960;2023-07-08T15:27:12;38.80;38.00
17726;DHT22;8983;53.156;17.960;2023-07-08T15:29:41;39.00;37.60
17726;DHT22;8983;53.156;17.960;2023-07-08T15:32:13;39.00;37.90
17726;DHT22;8983;53.156;17.960;2023-07-08T15:35:07;39.10;37.90
17726;DHT22;8983;53.156;17.960;2023-07-08T15:37:37;39.20;37.60
17726;DHT22;8983;53.156;17.960;2023-07-08T15:40:08;39.20;37.90
17726;DHT22;8983;53.156;17.960;2023-07-08T15:42:38;39.30;38.00
17726;DHT22;8983;53.156;17.960;2023-07-08T15:45:16;39.40;37.70
17726;DHT22;8983;53.156;17.960;2023-07-08T15:47:46;39.40;37.50
17726;DHT22;8983;53.156;17.960;2023-07-08T15:50:16;39.30;37.50
17726;DHT22;8983;53.156;17.960;2023-07-08T15:52:45;39.30;37.50
17726;DHT22;8983;53.156;17.960;2023-07-08T15:55:20;39.40;37.60
17726;DHT22;8983;53.156;17.960;2023-07-08T15:57:53;39.50;37.50
17726;DHT22;8983;53.156;17.960;2023-07-08T16:00:24;39.50;37.70
17726;DHT22;8983;53.156;17.960;2023-07-08T16:02:57;39.60;37.60
17726;DHT22;8983;53.156;17.960;2023-07-08T16:05:27;39.50;37.40
17726;DHT22;8983;53.156;17.960;2023-07-08T16:07:56;39.40;37.40